Time;durP1;ratioP1;P1;durP2;ratioP2;P2;SDS_P1;SDS_P2;PMS_P1;PMS_P2;Temp;Humidity;BMP_temperature;BMP_pressure;BME280_temperature;BME280_humidity;BME280_pressure;Samples;Min_cycle;Max_cycle;Signal;HPM_P1;HPM_P2
2023/12/25 00:02:01;;;;;;;3.22;3.03;;;;;;;12.09;94.34;100502.56;5073170;28;20074;-65
2023/12/25 00:04:26;;;;;;;4.43;2.65;;;;;;;12.04;94.29;100484.75;5072778;28;20428;-65
2023/12/25 00:06:52;;;;;;;3.05;2.63;;;;;;;12.08;94.23;100496.16;5086440;28;20028;-65
2023/12/25 00:09:19;;;;;;;2.60;2.40;;;;;;;12.08;94.14;100487.00;5093529;28;20443;-65
2023/12/25 00:11:44;;;;;;;2.15;1.95;;;;;;;12.08;93.85;100487.81;5092207;28;20047;-65
2023/12/25 00:14:10;;;;;;;2.65;2.00;;;;;;;12.09;94.21;100483.94;5093012;28;20051;-65
2023/12/25 00:16:35;;;;;;;2.00;1.90;;;;;;;12.08;94.00;100490.59;5092861;28;20089;-65
2023/12/25 00:19:00;;;;;;;1.98;1.85;;;;;;;12.07;93.74;100486.16;5084818;28;20545;-65
2023/12/25 00:21:26;;;;;;;2.72;2.10;;;;;;;12.05;94.01;100468.88;5085605;28;20082;-65
2023/12/25 00:23:52;;;;;;;2.60;2.00;;;;;;;12.04;94.29;100468.06;5093136;28;20093;-65
2023/12/25 00:26:17;;;;;;;2.10;1.92;;;;;;;12.07;94.34;100457.50;5076341;28;20027;-65
2023/12/25 00:28:42;;;;;;;4.35;2.40;;;;;;;12.00;93.96;100461.38;5072267;28;20040;-65
2023/12/25 00:31:08;;;;;;;4.03;2.33;;;;;;;12.02;94.36;100473.06;5072316;28;20024;-65
2023/12/25 00:33:33;;;;;;;3.63;2.22;;;;;;;12.05;94.19;100485.59;5078350;28;20027;-66
2023/12/25 00:35:58;;;;;;;2.42;2.22;;;;;;;12.04;93.52;100462.50;5081379;28;20043;-65
2023/12/25 00:38:26;;;;;;;2.83;2.58;;;;;;;12.01;93.89;100468.59;5075533;28;20047;-65
2023/12/25 00:40:52;;;;;;;2.67;2.47;;;;;;;12.01;93.91;100467.75;5087033;28;20046;-65
2023/12/25 00:43:17;;;;;;;2.67;2.47;;;;;;;12.01;94.07;100476.09;5092355;28;20024;-65
2023/12/25 00:45:43;;;;;;;2.72;2.30;;;;;;;12.01;94.03;100467.75;5092078;28;20119;-65
2023/12/25 00:48:08;;;;;;;2.88;2.47;;;;;;;12.00;94.09;100486.41;5085790;28;20059;-65
2023/12/25 00:50:33;;;;;;;3.08;2.78;;;;;;;11.96;94.23;100495.56;5072545;28;20032;-65
2023/12/25 00:52:58;;;;;;;2.75;2.38;;;;;;;11.99;94.40;100490.31;5071321;28;20031;-65
2023/12/25 00:55:24;;;;;;;4.05;2.60;;;;;;;12.01;93.89;100498.38;5071933;28;20044;-65
2023/12/25 00:57:49;;;;;;;2.85;2.60;;;;;;;11.97;94.10;100489.72;5074437;28;20070;-65
2023/12/25 01:00:14;;;;;;;2.58;2.38;;;;;;;11.99;94.05;100495.03;5088252;28;20460;-65
2023/12/25 01:02:40;;;;;;;3.78;2.17;;;;;;;12.02;94.05;100491.69;5079595;28;20059;-66
2023/12/25 01:05:05;;;;;;;3.38;2.90;;;;;;;11.97;93.95;100492.50;5092178;28;20486;-65
2023/12/25 01:07:31;;;;;;;3.03;2.60;;;;;;;11.97;94.06;100500.84;5091217;28;20028;-65
2023/12/25 01:09:56;;;;;;;2.60;2.40;;;;;;;11.95;94.22;100511.41;5072977;28;20044;-65
2023/12/25 01:12:21;;;;;;;2.80;2.60;;;;;;;11.98;94.57;100508.06;5081035;28;20107;-65
2023/12/25 01:14:46;;;;;;;2.65;2.45;;;;;;;11.97;94.04;100505.56;5088152;28;20047;-65
2023/12/25 01:17:14;;;;;;;3.53;2.70;;;;;;;11.98;94.11;100496.94;5090337;28;20071;-65
2023/12/25 01:19:40;;;;;;;2.97;2.45;;;;;;;11.96;94.54;100498.34;5086059;28;20031;-65
2023/12/25 01:22:07;;;;;;;3.00;2.65;;;;;;;11.98;93.74;100493.34;5070943;28;20020;-65
2023/12/25 01:24:33;;;;;;;3.45;3.00;;;;;;;11.99;94.02;100498.66;5071571;28;20025;-65
2023/12/25 01:26:58;;;;;;;3.95;3.00;;;;;;;11.99;94.16;100497.81;5071378;28;20021;-65
2023/12/25 01:29:23;;;;;;;5.70;2.70;;;;;;;11.97;93.86;100511.13;5070367;28;20044;-65
2023/12/25 01:31:49;;;;;;;3.90;2.83;;;;;;;11.96;94.09;100515.88;5071749;28;20024;-66
2023/12/25 01:34:14;;;;;;;3.28;2.92;;;;;;;11.98;93.81;100507.25;5077180;28;20028;-65
2023/12/25 01:36:40;;;;;;;3.10;2.90;;;;;;;11.98;94.30;100512.81;5089413;28;20489;-65
2023/12/25 01:39:05;;;;;;;4.75;3.05;;;;;;;11.97;93.81;100511.97;5091610;28;20031;-65
2023/12/25 01:41:30;;;;;;;5.43;3.30;;;;;;;12.00;94.29;100525.34;5091436;28;20416;-65
2023/12/25 01:43:55;;;;;;;3.97;3.42;;;;;;;12.00;94.23;100511.44;5090577;28;20035;-65
2023/12/25 01:46:21;;;;;;;4.25;3.78;;;;;;;12.00;93.71;100517.00;5091225;28;20024;-65
2023/12/25 01:48:50;;;;;;;3.85;3.55;;;;;;;12.03;94.18;100513.69;5091038;28;20032;-65
2023/12/25 01:51:21;;;;;;;4.03;3.70;;;;;;;12.06;94.16;100511.44;5089814;28;20020;-65
2023/12/25 01:53:46;;;;;;;4.28;3.75;;;;;;;12.04;93.85;100511.72;5073516;28;20090;-65
2023/12/25 01:56:12;;;;;;;5.07;3.92;;;;;;;12.07;94.12;100516.75;5079858;28;20091;-65
2023/12/25 01:58:37;;;;;;;4.82;4.43;;;;;;;12.08;93.86;100529.56;5073901;28;20082;-65
2023/12/25 02:01:02;;;;;;;4.72;4.30;;;;;;;12.09;93.75;100525.66;5086275;28;20040;-65
2023/12/25 02:03:28;;;;;;;4.85;4.32;;;;;;;12.10;93.80;100521.75;5081869;28;20078;-65
2023/12/25 02:05:53;;;;;;;5.43;4.93;;;;;;;12.09;93.47;100519.25;5075272;28;20478;-65
2023/12/25 02:08:19;;;;;;;5.30;4.90;;;;;;;12.09;93.82;100524.81;5086771;28;20036;-65
2023/12/25 02:10:47;;;;;;;5.13;4.50;;;;;;;12.11;93.16;100526.25;5088424;28;20131;-65
2023/12/25 02:13:12;;;;;;;5.00;4.50;;;;;;;12.12;93.55;100527.06;5084229;28;20063;-65
2023/12/25 02:15:41;;;;;;;5.43;4.68;;;;;;;12.09;93.09;100522.03;5095379;28;20554;-65
2023/12/25 02:18:08;;;;;;;4.85;4.35;;;;;;;12.10;93.07;100549.56;5093202;28;20123;-66
2023/12/25 02:20:33;;;;;;;6.10;5.50;;;;;;;12.07;93.09;100538.19;5095165;28;20115;-65
2023/12/25 02:23:02;;;;;;;5.85;5.45;;;;;;;12.04;92.74;100545.94;5079222;28;20107;-65
2023/12/25 02:25:33;;;;;;;6.65;5.95;;;;;;;12.06;92.77;100544.84;5074288;28;20123;-65
2023/12/25 02:28:00;;;;;;;6.72;6.13;;;;;;;12.08;93.05;100539.84;5082229;28;20502;-65
2023/12/25 02:30:26;;;;;;;6.28;5.78;;;;;;;12.07;92.63;100532.63;5078172;28;20039;-65
2023/12/25 02:32:54;;;;;;;6.40;5.45;;;;;;;12.08;92.68;100534.28;5092311;28;20035;-65
2023/12/25 02:35:20;;;;;;;5.15;4.65;;;;;;;12.09;92.60;100541.50;5094939;28;20032;-65
2023/12/25 02:37:45;;;;;;;5.00;4.60;;;;;;;12.11;92.66;100544.88;5093698;28;20043;-65
2023/12/25 02:40:11;;;;;;;4.95;4.35;;;;;;;12.11;92.19;100534.59;5094204;28;20425;-65
2023/12/25 02:42:36;;;;;;;4.28;3.88;;;;;;;12.12;92.43;100536.25;5094288;28;20443;-65
2023/12/25 02:45:02;;;;;;;4.78;4.38;;;;;;;12.15;92.60;100541.28;5094593;28;20409;-65
2023/12/25 02:47:27;;;;;;;5.45;5.03;;;;;;;12.18;92.52;100537.09;5094002;28;20024;-65
2023/12/25 02:49:52;;;;;;;5.78;4.45;;;;;;;12.18;91.95;100546.31;5089265;28;20075;-65
2023/12/25 02:52:18;;;;;;;5.32;4.90;;;;;;;12.18;91.69;100551.00;5079388;28;20025;-65
2023/12/25 02:54:43;;;;;;;5.13;4.72;;;;;;;12.19;91.68;100552.72;5093561;28;20028;-64
2023/12/25 02:57:08;;;;;;;5.93;5.20;;;;;;;12.17;91.89;100546.56;5074015;28;20020;-66
2023/12/25 02:59:34;;;;;;;5.55;5.05;;;;;;;12.16;91.72;100565.19;5074175;28;20754;-65
2023/12/25 03:01:59;;;;;;;6.15;5.05;;;;;;;12.15;91.79;100565.50;5091890;28;20036;-65
2023/12/25 03:04:24;;;;;;;5.93;5.20;;;;;;;12.18;91.38;100562.13;5087206;28;20457;-65
2023/12/25 03:06:49;;;;;;;5.32;4.93;;;;;;;12.17;91.36;100561.31;5078895;28;20036;-65
2023/12/25 03:09:16;;;;;;;5.75;5.00;;;;;;;12.20;91.27;100555.22;5081974;28;20043;-66
2023/12/25 03:11:42;;;;;;;6.10;5.43;;;;;;;12.19;91.23;100556.31;5093777;28;20030;-65
2023/12/25 03:14:07;;;;;;;5.10;4.70;;;;;;;12.17;91.08;100552.97;5088089;28;20036;-65
2023/12/25 03:16:32;;;;;;;5.40;4.90;;;;;;;12.20;91.49;100555.22;5091751;28;20497;-65
2023/12/25 03:18:57;;;;;;;4.95;4.60;;;;;;;12.20;91.07;100559.94;5093890;28;20406;-65
2023/12/25 03:21:23;;;;;;;4.82;4.43;;;;;;;12.21;91.27;100544.91;5093546;28;20024;-65
2023/12/25 03:23:48;;;;;;;5.18;4.68;;;;;;;12.21;91.14;100545.75;5092309;28;20450;-65
2023/12/25 03:26:13;;;;;;;5.47;4.97;;;;;;;12.22;91.25;100555.78;5093796;28;20020;-65
2023/12/25 03:28:39;;;;;;;5.10;4.68;;;;;;;12.20;91.08;100548.81;5082401;28;20075;-65
2023/12/25 03:31:04;;;;;;;5.00;4.60;;;;;;;12.16;91.29;100542.13;5083476;28;20498;-65
2023/12/25 03:33:30;;;;;;;5.97;5.25;;;;;;;12.15;91.52;100546.00;5089733;28;20017;-66
2023/12/25 03:35:55;;;;;;;6.13;5.53;;;;;;;12.18;91.49;100562.13;5092902;28;20046;-65
2023/12/25 03:38:20;;;;;;;5.50;5.10;;;;;;;12.18;91.07;100568.56;5091695;28;20024;-65
2023/12/25 03:40:46;;;;;;;5.30;4.80;;;;;;;12.18;91.28;100567.69;5093588;28;20105;-66
2023/12/25 03:43:11;;;;;;;5.60;4.90;;;;;;;12.19;91.23;100567.44;5093263;28;20032;-65
2023/12/25 03:45:36;;;;;;;4.63;4.30;;;;;;;12.21;91.85;100576.34;5088054;28;20056;-65
2023/12/25 03:48:03;;;;;;;4.90;4.50;;;;;;;12.20;92.01;100559.94;5083106;28;20067;-66
2023/12/25 03:50:28;;;;;;;5.20;4.40;;;;;;;12.21;91.93;100567.16;5084774;28;20024;-67
2023/12/25 03:52:54;;;;;;;4.95;4.50;;;;;;;12.20;91.87;100571.91;5083667;28;20020;-66
2023/12/25 03:55:23;;;;;;;4.15;3.75;;;;;;;12.20;92.25;100583.03;5078868;28;20031;-65
2023/12/25 03:57:48;;;;;;;4.45;3.65;;;;;;;12.19;92.12;100581.38;5073428;28;20136;-66
2023/12/25 04:00:16;;;;;;;5.22;3.67;;;;;;;12.19;92.21;100581.38;5074061;28;20099;-66
2023/12/25 04:02:41;;;;;;;4.00;3.70;;;;;;;12.20;91.91;100590.53;5072404;28;20082;-66
2023/12/25 04:05:10;;;;;;;5.82;3.60;;;;;;;12.19;92.17;100584.16;5088258;28;20024;-65
2023/12/25 04:07:36;;;;;;;4.25;3.67;;;;;;;12.17;92.08;100580.78;5075856;28;20028;-66
2023/12/25 04:10:02;;;;;;;3.60;3.30;;;;;;;12.19;92.37;100586.09;5072338;28;20024;-66
2023/12/25 04:12:27;;;;;;;6.05;3.20;;;;;;;12.20;92.27;100584.97;5072993;28;20116;-65
2023/12/25 04:14:55;;;;;;;5.32;3.47;;;;;;;12.19;92.14;100581.38;5072873;28;20115;-66
2023/12/25 04:17:20;;;;;;;2.92;2.70;;;;;;;12.19;92.26;100573.00;5074771;28;20107;-66
2023/12/25 04:19:45;;;;;;;3.83;2.92;;;;;;;12.20;92.19;100571.06;5092902;28;20072;-66
2023/12/25 04:22:13;;;;;;;3.30;2.72;;;;;;;12.18;92.12;100570.50;5084613;28;20016;-65
2023/12/25 04:24:38;;;;;;;3.60;3.30;;;;;;;12.17;91.97;100561.31;5089599;28;20425;-66
2023/12/25 04:27:04;;;;;;;3.10;2.83;;;;;;;12.18;92.14;100556.56;5092083;28;20020;-66
2023/12/25 04:29:29;;;;;;;3.42;2.70;;;;;;;12.20;92.02;100565.50;5092580;28;20499;-66
2023/12/25 04:31:57;;;;;;;3.00;2.78;;;;;;;12.19;91.62;100559.09;5090445;28;20028;-66
2023/12/25 04:34:22;;;;;;;2.80;2.60;;;;;;;12.16;92.15;100567.16;5089538;28;20494;-65
2023/12/25 04:36:48;;;;;;;3.03;2.83;;;;;;;12.18;91.67;100557.44;5089748;28;20110;-66
2023/12/25 04:39:13;;;;;;;2.60;2.40;;;;;;;12.20;91.83;100554.38;5089143;28;20365;-66
2023/12/25 04:41:38;;;;;;;2.53;2.15;;;;;;;12.20;91.16;100554.38;5072297;28;20032;-66
2023/12/25 04:44:04;;;;;;;2.13;1.90;;;;;;;12.20;91.66;100562.72;5072163;28;20116;-66
2023/12/25 04:46:29;;;;;;;2.08;1.98;;;;;;;12.17;91.09;100552.13;5071536;28;20067;-66
2023/12/25 04:48:54;;;;;;;1.92;1.73;;;;;;;12.16;91.26;100559.63;5072633;28;20154;-66
2023/12/25 04:51:20;;;;;;;1.88;1.75;;;;;;;12.18;91.09;100551.00;5089040;28;20448;-66
2023/12/25 04:53:45;;;;;;;1.88;1.48;;;;;;;12.16;91.10;100542.13;5091978;28;20024;-66
2023/12/25 04:56:13;;;;;;;2.08;1.83;;;;;;;12.14;91.34;100542.38;5089640;28;20028;-65
2023/12/25 04:58:39;;;;;;;1.90;1.80;;;;;;;12.13;91.58;100543.47;5078882;28;20131;-65
2023/12/25 05:01:05;;;;;;;1.98;1.80;;;;;;;12.15;91.37;100532.09;5079755;28;20115;-65
2023/12/25 05:03:30;;;;;;;2.53;2.33;;;;;;;12.14;91.39;100530.41;5092383;28;20031;-65
2023/12/25 05:05:56;;;;;;;2.60;2.40;;;;;;;12.16;91.42;100547.69;5089587;28;20036;-65
2023/12/25 05:08:22;;;;;;;2.88;2.67;;;;;;;12.15;91.36;100537.66;5092110;28;20032;-66
2023/12/25 05:10:47;;;;;;;3.72;3.10;;;;;;;12.17;91.90;100535.44;5079921;28;20087;-65
2023/12/25 05:13:13;;;;;;;3.38;3.17;;;;;;;12.16;91.38;100536.56;5075102;28;20031;-64
2023/12/25 05:15:38;;;;;;;3.83;3.38;;;;;;;12.16;91.75;100519.84;5084896;28;20536;-64
2023/12/25 05:18:03;;;;;;;3.58;3.28;;;;;;;12.15;92.07;100544.06;5085447;28;20032;-64
2023/12/25 05:20:29;;;;;;;3.50;3.20;;;;;;;12.17;91.71;100538.22;5079904;28;20108;-65
2023/12/25 05:22:54;;;;;;;3.47;3.20;;;;;;;12.17;91.47;100539.03;5091944;28;20027;-65
2023/12/25 05:25:19;;;;;;;3.00;2.80;;;;;;;12.18;91.78;100545.44;5091974;28;20359;-65
2023/12/25 05:27:44;;;;;;;3.50;3.20;;;;;;;12.13;91.78;100525.94;5090761;28;20027;-65
2023/12/25 05:30:10;;;;;;;3.53;3.22;;;;;;;12.13;91.57;100535.13;5084400;28;20103;-65
2023/12/25 05:32:36;;;;;;;3.50;3.20;;;;;;;12.14;92.04;100533.19;5077863;28;20540;-65
2023/12/25 05:35:04;;;;;;;3.33;3.10;;;;;;;12.11;91.88;100537.38;5073404;28;20028;-65
2023/12/25 05:37:29;;;;;;;4.43;4.03;;;;;;;12.13;91.89;100529.56;5088130;28;20028;-65
2023/12/25 05:39:55;;;;;;;3.50;3.20;;;;;;;12.16;91.85;100539.34;5090023;28;20038;-64
2023/12/25 05:42:21;;;;;;;4.50;4.10;;;;;;;12.13;91.79;100539.88;5090619;28;20442;-64
2023/12/25 05:44:49;;;;;;;4.50;4.10;;;;;;;12.15;92.04;100546.00;5089837;28;20026;-64
2023/12/25 05:47:14;;;;;;;3.90;3.60;;;;;;;12.15;91.99;100535.72;5088855;28;20028;-64
2023/12/25 05:49:40;;;;;;;4.15;3.75;;;;;;;12.14;91.53;100541.53;5085110;28;20035;-65
2023/12/25 05:52:05;;;;;;;4.00;3.70;;;;;;;12.17;92.13;100532.66;5082295;28;20478;-64
2023/12/25 05:54:31;;;;;;;4.30;3.90;;;;;;;12.12;91.88;100532.63;5075295;28;20063;-60
2023/12/25 05:56:56;;;;;;;3.88;3.58;;;;;;;12.13;91.83;100537.91;5079033;28;20031;-60
2023/12/25 05:59:21;;;;;;;3.80;3.50;;;;;;;12.12;91.86;100522.34;5073663;28;20056;-60
2023/12/25 06:01:47;;;;;;;3.63;3.33;;;;;;;12.12;92.08;100530.69;5080623;28;20448;-60
2023/12/25 06:04:12;;;;;;;3.65;3.35;;;;;;;12.12;91.95;100541.81;5077292;28;20090;-61
2023/12/25 06:06:37;;;;;;;3.75;3.45;;;;;;;12.14;92.13;100538.75;5070497;28;20024;-60
2023/12/25 06:09:03;;;;;;;3.70;3.40;;;;;;;12.13;92.44;100542.66;5068835;28;20024;-61
2023/12/25 06:11:28;;;;;;;3.05;2.85;;;;;;;12.13;92.38;100537.91;5084233;28;20016;-61
2023/12/25 06:13:53;;;;;;;3.72;3.42;;;;;;;12.12;92.63;100540.97;5085086;28;20036;-61
2023/12/25 06:16:18;;;;;;;3.97;3.67;;;;;;;12.12;92.77;100530.69;5069311;28;20032;-61
2023/12/25 06:18:44;;;;;;;3.60;3.30;;;;;;;12.13;92.62;100543.47;5074799;28;20119;-61
2023/12/25 06:21:09;;;;;;;3.33;3.03;;;;;;;12.13;92.62;100546.25;5070047;28;20075;-61
2023/12/25 06:23:35;;;;;;;3.65;3.35;;;;;;;12.12;92.44;100535.41;5084354;28;20036;-61
2023/12/25 06:26:00;;;;;;;3.08;2.78;;;;;;;12.12;92.76;100535.41;5087315;28;20064;-61
2023/12/25 06:28:25;;;;;;;4.05;2.80;;;;;;;12.13;92.36;100531.53;5082472;28;20063;-61
2023/12/25 06:30:51;;;;;;;2.78;2.58;;;;;;;12.15;92.40;100534.88;5083589;28;20064;-61
2023/12/25 06:33:18;;;;;;;2.50;2.30;;;;;;;12.13;92.51;100537.91;5088384;28;20103;-61
2023/12/25 06:35:43;;;;;;;2.22;2.13;;;;;;;12.13;92.79;100537.09;5080183;28;20043;-61
2023/12/25 06:38:08;;;;;;;2.70;2.35;;;;;;;12.14;92.86;100535.97;5088257;28;20036;-61
2023/12/25 06:40:34;;;;;;;2.65;2.45;;;;;;;12.14;92.50;100542.38;5079140;28;20030;-61
2023/12/25 06:43:02;;;;;;;2.85;2.63;;;;;;;12.11;92.74;100536.53;5079329;28;20570;-61
2023/12/25 06:45:27;;;;;;;3.03;2.83;;;;;;;12.10;92.50;100541.22;5069152;28;20467;-61
2023/12/25 06:47:52;;;;;;;3.00;2.80;;;;;;;12.05;92.73;100524.53;5071067;28;20073;-61
2023/12/25 06:50:18;;;;;;;2.90;2.70;;;;;;;12.07;93.07;100549.31;5071114;28;20021;-61
2023/12/25 06:52:43;;;;;;;3.05;2.85;;;;;;;12.07;93.13;100536.22;5073076;28;20036;-60
2023/12/25 06:55:09;;;;;;;3.30;3.10;;;;;;;12.07;93.04;100544.59;5073302;28;20031;-61
2023/12/25 06:57:35;;;;;;;4.05;3.10;;;;;;;12.04;93.20;100545.13;5078737;28;20028;-61
2023/12/25 07:00:00;;;;;;;3.38;3.17;;;;;;;12.06;92.87;100530.94;5080856;28;20016;-61
2023/12/25 07:02:29;;;;;;;3.75;3.45;;;;;;;12.06;93.22;100536.50;5093410;28;20471;-61
2023/12/25 07:04:55;;;;;;;3.20;3.00;;;;;;;12.09;93.53;100536.78;5090239;28;20089;-61
2023/12/25 07:07:20;;;;;;;3.22;3.00;;;;;;;12.12;93.51;100538.19;5092650;28;20028;-65
2023/12/25 07:09:45;;;;;;;3.88;3.58;;;;;;;12.12;93.08;100539.03;5088525;28;20114;-64
2023/12/25 07:12:11;;;;;;;3.47;3.28;;;;;;;12.15;92.98;100546.00;5084580;28;20024;-64
2023/12/25 07:14:38;;;;;;;4.18;3.88;;;;;;;12.14;92.74;100549.88;5089248;28;20045;-65
2023/12/25 07:17:06;;;;;;;4.45;4.15;;;;;;;12.12;92.91;100552.94;5081827;28;20364;-65
2023/12/25 07:19:31;;;;;;;4.00;3.78;;;;;;;12.12;93.26;100561.28;5082478;28;20027;-66
2023/12/25 07:21:57;;;;;;;3.95;3.65;;;;;;;12.11;92.88;100567.97;5087351;28;20028;-66
2023/12/25 07:24:24;;;;;;;4.35;3.95;;;;;;;12.07;92.91;100566.84;5075221;28;20028;-66
2023/12/25 07:26:50;;;;;;;3.90;3.63;;;;;;;12.09;93.03;100572.94;5080096;28;20052;-64
2023/12/25 07:29:16;;;;;;;4.22;3.92;;;;;;;12.09;93.37;100570.16;5084013;28;20100;-65
2023/12/25 07:31:42;;;;;;;4.45;4.13;;;;;;;12.07;93.55;100577.97;5074311;28;20117;-62
2023/12/25 07:34:07;;;;;;;4.20;3.90;;;;;;;12.08;93.08;100581.59;5081824;28;20050;-61
2023/12/25 07:36:33;;;;;;;4.25;3.95;;;;;;;12.07;93.11;100579.91;5080586;28;20033;-65
2023/12/25 07:38:58;;;;;;;4.60;4.28;;;;;;;12.08;93.34;100584.38;5081109;28;20059;-68
2023/12/25 07:41:24;;;;;;;4.80;4.40;;;;;;;12.07;93.82;100579.91;5075030;28;20024;-65
2023/12/25 07:43:49;;;;;;;4.38;4.07;;;;;;;12.08;93.83;100579.63;5076328;28;20033;-67
2023/12/25 07:46:15;;;;;;;4.57;4.28;;;;;;;12.09;93.53;100586.03;5077956;28;20112;-66
2023/12/25 07:48:40;;;;;;;4.13;3.83;;;;;;;12.11;93.77;100594.97;5078433;28;20020;-64
2023/12/25 07:51:06;;;;;;;4.03;3.72;;;;;;;12.11;93.91;100589.41;5078147;28;20029;-65
2023/12/25 07:53:31;;;;;;;4.00;3.70;;;;;;;12.14;93.46;100589.66;5072390;28;20031;-67
2023/12/25 07:55:56;;;;;;;3.78;3.47;;;;;;;12.16;93.71;100598.59;5084206;28;20429;-66
2023/12/25 07:58:22;;;;;;;3.83;3.25;;;;;;;12.17;93.75;100605.81;5075921;28;20622;-67
2023/12/25 08:00:48;;;;;;;3.90;3.60;;;;;;;12.16;93.98;100606.94;5077521;28;20016;-61
2023/12/25 08:03:13;;;;;;;3.58;3.30;;;;;;;12.18;93.81;100606.66;5086150;28;20391;-66
2023/12/25 08:05:39;;;;;;;3.58;3.33;;;;;;;12.26;94.73;100620.06;5085853;28;20374;-65
2023/12/25 08:08:08;;;;;;;3.70;3.50;;;;;;;12.22;94.08;100619.78;5081338;28;20028;-65
2023/12/25 08:10:33;;;;;;;3.60;3.40;;;;;;;12.23;94.39;100621.44;5079918;28;20036;-61
2023/12/25 08:13:04;;;;;;;3.10;2.90;;;;;;;12.25;93.98;100629.53;5090069;28;20035;-68
2023/12/25 08:15:30;;;;;;;3.45;3.15;;;;;;;12.24;93.91;100622.28;5084908;28;20057;-64
2023/12/25 08:17:55;;;;;;;3.35;3.15;;;;;;;12.25;93.97;100635.09;5083922;28;20036;-64
2023/12/25 08:20:23;;;;;;;3.17;2.97;;;;;;;12.20;94.01;100643.41;5089038;28;20031;-67
2023/12/25 08:22:48;;;;;;;3.55;3.30;;;;;;;12.23;93.87;100640.94;5078391;28;20035;-69
2023/12/25 08:25:14;;;;;;;2.90;2.70;;;;;;;12.23;93.88;100643.72;5090722;28;20028;-67
2023/12/25 08:27:39;;;;;;;3.05;2.85;;;;;;;12.20;94.44;100643.41;5081006;28;20441;-60
2023/12/25 08:30:06;;;;;;;3.30;3.10;;;;;;;12.21;93.93;100643.13;5075394;28;20849;-63
2023/12/25 08:32:31;;;;;;;3.30;2.97;;;;;;;12.20;94.00;100643.41;5082169;28;20104;-65
2023/12/25 08:34:56;;;;;;;3.33;3.13;;;;;;;12.19;94.54;100647.31;5076070;28;20036;-66
2023/12/25 08:37:22;;;;;;;2.90;2.70;;;;;;;12.20;94.58;100644.25;5085987;28;20036;-67
2023/12/25 08:39:47;;;;;;;3.00;2.80;;;;;;;12.20;94.56;100655.38;5087878;28;20035;-66
2023/12/25 08:42:12;;;;;;;2.72;2.53;;;;;;;12.19;94.21;100652.88;5086251;28;20106;-68
2023/12/25 08:44:38;;;;;;;4.28;2.33;;;;;;;12.19;94.57;100650.09;5082533;28;20021;-67
2023/12/25 08:47:04;;;;;;;3.20;3.00;;;;;;;12.18;94.81;100656.75;5086075;28;20016;-69
2023/12/25 08:49:29;;;;;;;2.83;2.63;;;;;;;12.20;94.42;100662.88;5093015;28;20058;-69
2023/12/25 08:51:55;;;;;;;2.92;2.72;;;;;;;12.20;94.59;100660.09;5090180;28;20387;-61
2023/12/25 08:54:20;;;;;;;3.22;3.03;;;;;;;12.24;94.33;100666.81;5080633;28;20036;-65
2023/12/25 08:56:47;;;;;;;3.40;3.20;;;;;;;12.23;95.08;100674.31;5070965;28;20029;-66
2023/12/25 08:59:13;;;;;;;4.28;3.90;;;;;;;12.43;97.79;100673.59;5070519;28;20111;-68
2023/12/25 09:01:38;;;;;;;1.80;1.70;;;;;;;12.46;94.77;100675.03;5073764;28;20041;-68
2023/12/25 09:04:03;;;;;;;1.00;1.00;;;;;;;12.46;92.72;100667.50;5078622;28;20028;-65
2023/12/25 09:06:29;;;;;;;1.35;0.80;;;;;;;12.46;91.86;100653.59;5081380;28;20024;-65
2023/12/25 09:08:55;;;;;;;0.70;0.70;;;;;;;12.44;91.29;100654.97;5081740;28;20048;-65
2023/12/25 09:11:23;;;;;;;1.45;0.60;;;;;;;12.43;90.35;100659.69;5082221;28;20028;-65
2023/12/25 09:13:49;;;;;;;0.93;0.80;;;;;;;12.56;91.64;100660.31;5088398;28;20114;-66
2023/12/25 09:16:14;;;;;;;3.92;3.63;;;;;;;12.70;91.95;100665.09;5083431;28;20352;-67
2023/12/25 09:18:39;;;;;;;3.42;2.92;;;;;;;12.78;91.14;100672.94;5073956;28;20101;-66
2023/12/25 09:21:05;;;;;;;5.00;4.60;;;;;;;12.92;90.32;100676.03;5080001;28;20024;-68
2023/12/25 09:23:30;;;;;;;3.83;3.53;;;;;;;12.94;90.31;100684.16;5083017;28;20075;-67
2023/12/25 09:25:56;;;;;;;3.00;2.80;;;;;;;12.93;90.27;100691.66;5087012;28;20034;-66
2023/12/25 09:28:22;;;;;;;3.08;2.88;;;;;;;12.93;90.55;100699.16;5088271;28;20036;-65
2023/12/25 09:30:47;;;;;;;3.05;2.78;;;;;;;12.91;90.53;100710.59;5083248;28;20064;-65
2023/12/25 09:33:12;;;;;;;2.70;2.50;;;;;;;12.88;90.78;100716.69;5069403;28;20055;-67
2023/12/25 09:35:38;;;;;;;2.85;2.63;;;;;;;12.88;90.91;100719.47;5078505;28;20035;-66
2023/12/25 09:38:03;;;;;;;3.25;2.53;;;;;;;12.86;90.86;100724.50;5084559;28;20486;-67
2023/12/25 09:40:30;;;;;;;3.92;2.60;;;;;;;12.85;91.15;100727.53;5080464;28;20025;-65
2023/12/25 09:42:57;;;;;;;2.60;2.50;;;;;;;12.80;91.60;100733.94;5083900;28;20028;-66
2023/12/25 09:45:25;;;;;;;2.50;2.30;;;;;;;12.79;91.41;100732.25;5078667;28;20047;-64
2023/12/25 09:47:52;;;;;;;2.75;2.55;;;;;;;12.75;91.60;100739.47;5075051;28;20025;-65
2023/12/25 09:50:20;;;;;;;2.53;2.33;;;;;;;12.69;91.76;100733.06;5088975;28;20040;-66
2023/12/25 09:52:45;;;;;;;2.25;2.13;;;;;;;12.69;91.83;100729.41;5079738;28;20103;-66
2023/12/25 09:55:11;;;;;;;2.17;2.08;;;;;;;12.65;91.97;100726.31;5084657;28;20900;-65
2023/12/25 09:57:37;;;;;;;2.40;2.25;;;;;;;12.66;92.46;100719.69;5072192;28;20062;-65
2023/12/25 10:00:05;;;;;;;1.88;1.58;;;;;;;12.58;91.03;100714.63;5070810;28;20054;-65
2023/12/25 10:02:35;;;;;;;0.88;0.88;;;;;;;12.49;90.55;100716.22;5076511;28;20386;-63
2023/12/25 10:05:01;;;;;;;1.27;0.80;;;;;;;12.46;89.94;100723.19;5075423;28;20458;-64
2023/12/25 10:07:27;;;;;;;0.80;0.70;;;;;;;12.41;89.58;100725.91;5081445;28;20120;-64
2023/12/25 10:09:55;;;;;;;0.68;0.68;;;;;;;12.39;89.94;100727.31;5079107;28;20115;-63
2023/12/25 10:12:21;;;;;;;0.50;0.50;;;;;;;12.31;89.36;100719.47;5077536;28;20031;-65
2023/12/25 10:14:46;;;;;;;1.00;0.40;;;;;;;12.28;89.38;100737.53;5079631;28;20028;-64
2023/12/25 10:17:12;;;;;;;1.30;0.60;;;;;;;12.25;89.78;100738.03;5080792;28;20076;-58
2023/12/25 10:19:57;;;;;;;0.50;0.50;;;;;;;12.27;90.30;100727.50;5084574;28;20028;-62
2023/12/25 10:22:40;;;;;;;1.42;0.50;;;;;;;12.25;89.67;100741.66;5084497;28;20494;-64
2023/12/25 10:25:10;;;;;;;1.15;0.60;;;;;;;12.19;89.03;100744.69;5082083;28;20048;-67
2023/12/25 10:27:40;;;;;;;0.65;0.50;;;;;;;12.11;89.21;100746.03;5080484;28;20023;-63
2023/12/25 10:30:16;;;;;;;1.60;0.45;;;;;;;12.16;89.09;100742.44;5078043;28;20052;-65
2023/12/25 10:32:41;;;;;;;2.20;0.80;;;;;;;12.14;88.82;100727.94;5079193;28;20467;-63
2023/12/25 10:35:11;;;;;;;0.95;0.77;;;;;;;11.99;88.76;100751.78;5072916;28;20031;-63
2023/12/25 10:37:38;;;;;;;0.90;0.85;;;;;;;11.97;89.11;100748.41;5079283;28;20020;-63
2023/12/25 10:40:26;;;;;;;0.80;0.80;;;;;;;11.97;89.28;100747.56;5085842;28;20070;-65
2023/12/25 10:42:55;;;;;;;1.15;0.73;;;;;;;11.93;89.34;100733.34;5075261;28;20036;-64
2023/12/25 10:45:23;;;;;;;1.23;0.80;;;;;;;11.93;89.22;100733.34;5074067;28;20105;-59
2023/12/25 10:47:53;;;;;;;1.00;0.60;;;;;;;11.86;89.25;100743.84;5077739;28;20560;-64
2023/12/25 10:50:25;;;;;;;0.70;0.70;;;;;;;11.88;89.41;100746.38;5082483;28;20094;-64
2023/12/25 10:52:51;;;;;;;2.42;0.80;;;;;;;11.89;89.42;100754.44;5078268;28;20087;-64
2023/12/25 10:55:41;;;;;;;0.98;0.63;;;;;;;11.93;89.67;100744.47;5076014;28;20027;-64
2023/12/25 10:58:08;;;;;;;1.88;1.00;;;;;;;11.91;88.97;100735.56;5075041;28;20035;-64
2023/12/25 11:00:40;;;;;;;2.25;0.75;;;;;;;11.93;89.27;100750.03;5074785;28;20024;-63
2023/12/25 11:03:06;;;;;;;0.95;0.80;;;;;;;11.91;88.68;100732.78;5079233;28;20037;-66
2023/12/25 11:05:32;;;;;;;1.23;0.82;;;;;;;11.88;88.62;100738.88;5074478;28;20032;-66
2023/12/25 11:07:58;;;;;;;0.85;0.60;;;;;;;11.88;88.63;100747.22;5077563;28;20046;-64
2023/12/25 11:10:30;;;;;;;1.13;0.70;;;;;;;11.91;88.50;100745.88;5072096;28;20123;-64
2023/12/25 11:12:56;;;;;;;1.92;1.00;;;;;;;11.90;88.52;100756.13;5079173;28;20032;-65
2023/12/25 11:15:22;;;;;;;0.77;0.77;;;;;;;11.91;88.21;100765.34;5076729;28;20079;-65
2023/12/25 11:17:49;;;;;;;2.28;0.80;;;;;;;11.91;88.40;100746.69;5074633;28;20130;-65
2023/12/25 11:20:14;;;;;;;2.35;1.00;;;;;;;11.90;88.20;100750.56;5079564;28;20032;-65